sensor_id;sensor_type;location;lat;lon;timestamp;pressure;altitude;pressure_sealevel;temperature;humidity
9764;BME280;4921;43.214;27.936;2022-07-29T00:00:48;101064.59;;;25.26;100.00
9764;BME280;4921;43.214;27.936;2022-07-29T00:03:15;101057.38;;;25.26;100.00
9764;BME280;4921;43.214;27.936;2022-07-29T00:05:42;101059.66;;;25.23;100.00
9764;BME280;4921;43.214;27.936;2022-07-29T00:08:09;101050.34;;;25.19;100.00
9764;BME280;4921;43.214;27.936;2022-07-29T00:10:38;101060.06;;;25.20;100.00
9764;BME280;4921;43.214;27.936;2022-07-29T00:13:05;101062.75;;;25.13;100.00
9764;BME280;4921;43.214;27.936;2022-07-29T00:15:32;101059.03;;;25.14;100.00
9764;BME280;4921;43.214;27.936;2022-07-29T00:17:59;101056.13;;;25.09;100.00
9764;BME280;4921;43.214;27.936;2022-07-29T00:20:26;101053.63;;;25.01;100.00
9764;BME280;4921;43.214;27.936;2022-07-29T00:22:53;101062.53;;;25.02;100.00
9764;BME280;4921;43.214;27.936;2022-07-29T00:25:20;101055.28;;;25.02;100.00
9764;BME280;4921;43.214;27.936;2022-07-29T00:27:48;101061.09;;;24.99;100.00
9764;BME280;4921;43.214;27.936;2022-07-29T00:30:15;101059.41;;;24.98;100.00
9764;BME280;4921;43.214;27.936;2022-07-29T00:32:42;101063.31;;;24.89;100.00
9764;BME280;4921;43.214;27.936;2022-07-29T00:35:09;101070.16;;;24.91;100.00
9764;BME280;4921;43.214;27.936;2022-07-29T00:37:53;101065.59;;;24.85;100.00
9764;BME280;4921;43.214;27.936;2022-07-29T00:40:21;101069.97;;;24.86;100.00
9764;BME280;4921;43.214;27.936;2022-07-29T00:42:51;101066.47;;;24.92;100.00
9764;BME280;4921;43.214;27.936;2022-07-29T00:45:19;101058.16;;;24.87;100.00
9764;BME280;4921;43.214;27.936;2022-07-29T00:47:47;101054.63;;;24.87;100.00
9764;BME280;4921;43.214;27.936;2022-07-29T00:50:14;101051.75;;;24.88;100.00
9764;BME280;4921;43.214;27.936;2022-07-29T00:52:42;101054.47;;;24.95;100.00
9764;BME280;4921;43.214;27.936;2022-07-29T00:55:11;101048.03;;;24.96;100.00
9764;BME280;4921;43.214;27.936;2022-07-29T00:57:40;101045.75;;;24.99;100.00
9764;BME280;4921;43.214;27.936;2022-07-29T01:00:11;101050.94;;;25.01;100.00
9764;BME280;4921;43.214;27.936;2022-07-29T01:02:39;101045.56;;;25.01;100.00
9764;BME280;4921;43.214;27.936;2022-07-29T01:05:06;101045.34;;;25.03;100.00
9764;BME280;4921;43.214;27.936;2022-07-29T01:07:34;101058.81;;;25.03;100.00
9764;BME280;4921;43.214;27.936;2022-07-29T01:10:03;101047.41;;;25.01;100.00
9764;BME280;4921;43.214;27.936;2022-07-29T01:12:32;101041.19;;;25.00;100.00
9764;BME280;4921;43.214;27.936;2022-07-29T01:15:02;101054.47;;;24.95;100.00
9764;BME280;4921;43.214;27.936;2022-07-29T01:17:33;101051.34;;;24.98;100.00
9764;BME280;4921;43.214;27.936;2022-07-29T01:20:07;101046.78;;;24.98;100.00
9764;BME280;4921;43.214;27.936;2022-07-29T01:22:50;101048.88;;;25.03;100.00
9764;BME280;4921;43.214;27.936;2022-07-29T01:25:38;101041.81;;;25.02;100.00
9764;BME280;4921;43.214;27.936;2022-07-29T01:28:40;101039.13;;;24.95;100.00
9764;BME280;4921;43.214;27.936;2022-07-29T01:31:15;101035.38;;;24.83;100.00
9764;BME280;4921;43.214;27.936;2022-07-29T01:33:45;101035.38;;;24.83;100.00
9764;BME280;4921;43.214;27.936;2022-07-29T01:36:18;101032.28;;;24.86;100.00
9764;BME280;4921;43.214;27.936;2022-07-29T01:38:54;101026.25;;;24.84;100.00
9764;BME280;4921;43.214;27.936;2022-07-29T01:41:26;101026.25;;;24.84;100.00
9764;BME280;4921;43.214;27.936;2022-07-29T01:43:59;101036.41;;;24.82;100.00
9764;BME280;4921;43.214;27.936;2022-07-29T01:46:31;101035.72;;;24.74;100.00
9764;BME280;4921;43.214;27.936;2022-07-29T01:49:06;101028.25;;;24.69;100.00
9764;BME280;4921;43.214;27.936;2022-07-29T01:51:40;101031.59;;;24.65;100.00
9764;BME280;4921;43.214;27.936;2022-07-29T01:54:12;101026.59;;;24.62;100.00
9764;BME280;4921;43.214;27.936;2022-07-29T01:56:40;101026.38;;;24.57;100.00
9764;BME280;4921;43.214;27.936;2022-07-29T01:59:11;101017.91;;;24.53;100.00
9764;BME280;4921;43.214;27.936;2022-07-29T02:01:39;101023.88;;;24.49;100.00
9764;BME280;4921;43.214;27.936;2022-07-29T02:04:10;101023.47;;;24.45;100.00
9764;BME280;4921;43.214;27.936;2022-07-29T02:06:38;101022.22;;;24.48;100.00
9764;BME280;4921;43.214;27.936;2022-07-29T02:09:08;101022.22;;;24.48;100.00
9764;BME280;4921;43.214;27.936;2022-07-29T02:11:37;101022.22;;;24.48;100.00
9764;BME280;4921;43.214;27.936;2022-07-29T02:14:05;101025.31;;;24.45;100.00
9764;BME280;4921;43.214;27.936;2022-07-29T02:16:36;101026.78;;;24.47;100.00
9764;BME280;4921;43.214;27.936;2022-07-29T02:19:05;101021.41;;;24.47;100.00
9764;BME280;4921;43.214;27.936;2022-07-29T02:21:35;101026.56;;;24.49;100.00
9764;BME280;4921;43.214;27.936;2022-07-29T02:24:03;101020.81;;;24.52;100.00
9764;BME280;4921;43.214;27.936;2022-07-29T02:26:32;101024.50;;;24.51;100.00
9764;BME280;4921;43.214;27.936;2022-07-29T02:29:01;101020.81;;;24.52;100.00
9764;BME280;4921;43.214;27.936;2022-07-29T02:31:33;101019.75;;;24.53;100.00
9764;BME280;4921;43.214;27.936;2022-07-29T02:34:03;101019.53;;;24.54;100.00
9764;BME280;4921;43.214;27.936;2022-07-29T02:36:33;101017.28;;;24.51;100.00
9764;BME280;4921;43.214;27.936;2022-07-29T02:39:02;101016.81;;;24.48;100.00
9764;BME280;4921;43.214;27.936;2022-07-29T02:41:35;101027.41;;;24.49;100.00
9764;BME280;4921;43.214;27.936;2022-07-29T02:44:09;101034.25;;;24.52;100.00
9764;BME280;4921;43.214;27.936;2022-07-29T02:46:37;101034.63;;;24.49;100.00
9764;BME280;4921;43.214;27.936;2022-07-29T02:49:14;101031.31;;;24.47;100.00
9764;BME280;4921;43.214;27.936;2022-07-29T02:51:44;101031.13;;;24.48;100.00
9764;BME280;4921;43.214;27.936;2022-07-29T02:54:20;101040.84;;;24.49;100.00
9764;BME280;4921;43.214;27.936;2022-07-29T02:56:49;101033.63;;;24.50;100.00
9764;BME280;4921;43.214;27.936;2022-07-29T02:59:23;101031.75;;;24.50;100.00
9764;BME280;4921;43.214;27.936;2022-07-29T03:01:54;101022.88;;;24.50;100.00
9764;BME280;4921;43.214;27.936;2022-07-29T03:04:24;101038.34;;;24.48;100.00
9764;BME280;4921;43.214;27.936;2022-07-29T03:06:55;101044.16;;;24.51;100.00
9764;BME280;4921;43.214;27.936;2022-07-29T03:09:25;101034.84;;;24.47;100.00
9764;BME280;4921;43.214;27.936;2022-07-29T03:11:53;101044.38;;;24.50;100.00
9764;BME280;4921;43.214;27.936;2022-07-29T03:14:21;101041.91;;;24.55;100.00
9764;BME280;4921;43.214;27.936;2022-07-29T03:16:50;101044.59;;;24.55;100.00
9764;BME280;4921;43.214;27.936;2022-07-29T03:19:18;101048.31;;;24.54;100.00
9764;BME280;4921;43.214;27.936;2022-07-29T03:21:47;101053.47;;;24.49;100.00
9764;BME280;4921;43.214;27.936;2022-07-29T03:24:27;101055.53;;;24.47;100.00
9764;BME280;4921;43.214;27.936;2022-07-29T03:26:55;101051.00;;;24.47;100.00
9764;BME280;4921;43.214;27.936;2022-07-29T03:29:22;101058.84;;;24.49;100.00
9764;BME280;4921;43.214;27.936;2022-07-29T03:31:49;101060.69;;;24.48;100.00
9764;BME280;4921;43.214;27.936;2022-07-29T03:34:16;101058.44;;;24.45;100.00
9764;BME280;4921;43.214;27.936;2022-07-29T03:36:43;101059.69;;;24.49;100.00
9764;BME280;4921;43.214;27.936;2022-07-29T03:39:14;101069.22;;;24.52;100.00
9764;BME280;4921;43.214;27.936;2022-07-29T03:41:43;101066.53;;;24.52;100.00
9764;BME280;4921;43.214;27.936;2022-07-29T03:44:11;101068.59;;;24.50;100.00
9764;BME280;4921;43.214;27.936;2022-07-29T03:46:39;101065.69;;;24.51;100.00
9764;BME280;4921;43.214;27.936;2022-07-29T03:49:09;101067.31;;;24.52;100.00
9764;BME280;4921;43.214;27.936;2022-07-29T03:51:37;101067.16;;;24.54;100.00
9764;BME280;4921;43.214;27.936;2022-07-29T03:54:05;101074.63;;;24.58;100.00
9764;BME280;4921;43.214;27.936;2022-07-29T03:56:38;101075.25;;;24.60;100.00
9764;BME280;4921;43.214;27.936;2022-07-29T03:59:07;101079.34;;;24.63;100.00
9764;BME280;4921;43.214;27.936;2022-07-29T04:01:34;101078.34;;;24.64;100.00
9764;BME280;4921;43.214;27.936;2022-07-29T04:04:02;101081.88;;;24.64;100.00
9764;BME280;4921;43.214;27.936;2022-07-29T04:06:38;101073.81;;;24.71;100.00
9764;BME280;4921;43.214;27.936;2022-07-29T04:09:05;101076.09;;;24.74;100.00
9764;BME280;4921;43.214;27.936;2022-07-29T04:11:32;101078.03;;;24.80;100.00
9764;BME280;4921;43.214;27.936;2022-07-29T04:14:00;101076.38;;;24.85;100.00
9764;BME280;4921;43.214;27.936;2022-07-29T04:16:28;101078.44;;;24.90;100.00
9764;BME280;4921;43.214;27.936;2022-07-29T04:18:55;101072.47;;;24.94;100.00
9764;BME280;4921;43.214;27.936;2022-07-29T04:21:22;101076.81;;;25.02;100.00
9764;BME280;4921;43.214;27.936;2022-07-29T04:23:49;101062.94;;;25.05;100.00
9764;BME280;4921;43.214;27.936;2022-07-29T04:26:16;101065.22;;;25.08;100.00
9764;BME280;4921;43.214;27.936;2022-07-29T04:28:43;101062.97;;;25.12;100.00
9764;BME280;4921;43.214;27.936;2022-07-29T04:31:12;101069.38;;;25.17;100.00
9764;BME280;4921;43.214;27.936;2022-07-29T04:33:39;101072.06;;;25.24;100.00
9764;BME280;4921;43.214;27.936;2022-07-29T04:36:06;101068.97;;;25.27;100.00
9764;BME280;4921;43.214;27.936;2022-07-29T04:38:33;101065.66;;;25.31;100.00
9764;BME280;4921;43.214;27.936;2022-07-29T04:41:00;101064.00;;;25.37;100.00
9764;BME280;4921;43.214;27.936;2022-07-29T04:43:27;101064.44;;;25.40;100.00
9764;BME280;4921;43.214;27.936;2022-07-29T04:45:54;101062.16;;;25.44;100.00
9764;BME280;4921;43.214;27.936;2022-07-29T04:48:22;101063.00;;;25.44;100.00
9764;BME280;4921;43.214;27.936;2022-07-29T04:50:49;101062.38;;;25.49;100.00
9764;BME280;4921;43.214;27.936;2022-07-29T04:53:16;101066.31;;;25.53;100.00
9764;BME280;4921;43.214;27.936;2022-07-29T04:55:43;101067.56;;;25.57;100.00
9764;BME280;4921;43.214;27.936;2022-07-29T04:58:10;101050.78;;;25.48;100.00
9764;BME280;4921;43.214;27.936;2022-07-29T05:00:38;101066.50;;;25.64;100.00
9764;BME280;4921;43.214;27.936;2022-07-29T05:03:06;101073.94;;;25.69;100.00
9764;BME280;4921;43.214;27.936;2022-07-29T05:05:34;101056.31;;;25.73;100.00
9764;BME280;4921;43.214;27.936;2022-07-29T05:08:01;101059.84;;;25.80;100.00
9764;BME280;4921;43.214;27.936;2022-07-29T05:10:28;101051.34;;;25.83;100.00
9764;BME280;4921;43.214;27.936;2022-07-29T05:13:04;101050.91;;;25.86;100.00
9764;BME280;4921;43.214;27.936;2022-07-29T05:15:32;101052.56;;;25.94;100.00
9764;BME280;4921;43.214;27.936;2022-07-29T05:17:59;101060.41;;;26.02;100.00
9764;BME280;4921;43.214;27.936;2022-07-29T05:20:26;101065.81;;;26.02;100.00
9764;BME280;4921;43.214;27.936;2022-07-29T05:22:54;101062.28;;;26.01;100.00
9764;BME280;4921;43.214;27.936;2022-07-29T05:25:21;101063.94;;;26.02;100.00
9764;BME280;4921;43.214;27.936;2022-07-29T05:27:48;101065.81;;;26.02;100.00
9764;BME280;4921;43.214;27.936;2022-07-29T05:30:16;101057.91;;;26.07;100.00
9764;BME280;4921;43.214;27.936;2022-07-29T05:32:43;101066.03;;;26.13;100.00
9764;BME280;4921;43.214;27.936;2022-07-29T05:35:19;101063.72;;;26.17;100.00
9764;BME280;4921;43.214;27.936;2022-07-29T05:37:46;101056.47;;;26.17;100.00
9764;BME280;4921;43.214;27.936;2022-07-29T05:40:13;101066.38;;;26.23;100.00
9764;BME280;4921;43.214;27.936;2022-07-29T05:42:40;101064.09;;;26.27;100.00
9764;BME280;4921;43.214;27.936;2022-07-29T05:45:07;101059.13;;;26.30;100.00
9764;BME280;4921;43.214;27.936;2022-07-29T05:47:36;101063.88;;;26.35;100.00
9764;BME280;4921;43.214;27.936;2022-07-29T05:50:03;101067.19;;;26.37;100.00
9764;BME280;4921;43.214;27.936;2022-07-29T05:52:31;101067.16;;;26.43;100.00
9764;BME280;4921;43.214;27.936;2022-07-29T05:54:58;101065.44;;;26.49;100.00
9764;BME280;4921;43.214;27.936;2022-07-29T05:57:28;101063.78;;;26.55;100.00
9764;BME280;4921;43.214;27.936;2022-07-29T05:59:55;101065.38;;;26.62;100.00
9764;BME280;4921;43.214;27.936;2022-07-29T06:02:22;101065.38;;;26.62;100.00
9764;BME280;4921;43.214;27.936;2022-07-29T06:04:50;101068.47;;;26.66;100.00
9764;BME280;4921;43.214;27.936;2022-07-29T06:07:26;101072.41;;;26.70;100.00
9764;BME280;4921;43.214;27.936;2022-07-29T06:09:53;101072.41;;;26.76;100.00
9764;BME280;4921;43.214;27.936;2022-07-29T06:12:20;101069.44;;;26.84;100.00
9764;BME280;4921;43.214;27.936;2022-07-29T06:14:47;101075.66;;;26.91;100.00
9764;BME280;4921;43.214;27.936;2022-07-29T06:17:15;101077.47;;;26.97;100.00
9764;BME280;4921;43.214;27.936;2022-07-29T06:19:42;101080.13;;;27.04;100.00
9764;BME280;4921;43.214;27.936;2022-07-29T06:22:11;101070.53;;;27.08;100.00
9764;BME280;4921;43.214;27.936;2022-07-29T06:24:37;101083.84;;;27.03;100.00
9764;BME280;4921;43.214;27.936;2022-07-29T06:27:09;101077.66;;;26.96;100.00
9764;BME280;4921;43.214;27.936;2022-07-29T06:29:36;101082.66;;;26.99;100.00
9764;BME280;4921;43.214;27.936;2022-07-29T06:32:04;101081.56;;;27.06;100.00
9764;BME280;4921;43.214;27.936;2022-07-29T06:34:32;101082.28;;;27.20;100.00
9764;BME280;4921;43.214;27.936;2022-07-29T06:36:59;101073.91;;;27.28;100.00
9764;BME280;4921;43.214;27.936;2022-07-29T06:39:28;101081.16;;;27.34;100.00
9764;BME280;4921;43.214;27.936;2022-07-29T06:41:55;101072.88;;;27.29;100.00
9764;BME280;4921;43.214;27.936;2022-07-29T06:44:22;101075.31;;;27.37;100.00
9764;BME280;4921;43.214;27.936;2022-07-29T06:46:50;101075.53;;;27.36;100.00
9764;BME280;4921;43.214;27.936;2022-07-29T06:49:17;101069.25;;;27.42;100.00
9764;BME280;4921;43.214;27.936;2022-07-29T06:51:44;101082.94;;;27.47;100.00
9764;BME280;4921;43.214;27.936;2022-07-29T06:54:10;101071.28;;;27.46;100.00
9764;BME280;4921;43.214;27.936;2022-07-29T06:56:39;101070.22;;;27.54;100.00
9764;BME280;4921;43.214;27.936;2022-07-29T06:59:08;101072.13;;;27.47;100.00
9764;BME280;4921;43.214;27.936;2022-07-29T07:01:35;101074.31;;;27.56;100.00
9764;BME280;4921;43.214;27.936;2022-07-29T07:04:03;101067.59;;;27.65;100.00
9764;BME280;4921;43.214;27.936;2022-07-29T07:06:30;101065.88;;;27.71;100.00
9764;BME280;4921;43.214;27.936;2022-07-29T07:08:57;101071.22;;;27.77;100.00
9764;BME280;4921;43.214;27.936;2022-07-29T07:11:24;101077.09;;;27.92;100.00
9764;BME280;4921;43.214;27.936;2022-07-29T07:13:53;101080.47;;;27.88;100.00
9764;BME280;4921;43.214;27.936;2022-07-29T07:16:20;101078.88;;;27.80;100.00
9764;BME280;4921;43.214;27.936;2022-07-29T07:18:47;101081.16;;;27.83;100.00
9764;BME280;4921;43.214;27.936;2022-07-29T07:21:13;101075.81;;;27.95;100.00
9764;BME280;4921;43.214;27.936;2022-07-29T07:23:40;101076.84;;;28.01;100.00
9764;BME280;4921;43.214;27.936;2022-07-29T07:26:07;101076.41;;;27.79;100.00
9764;BME280;4921;43.214;27.936;2022-07-29T07:28:34;101084.13;;;28.00;100.00
9764;BME280;4921;43.214;27.936;2022-07-29T07:31:02;101081.69;;;27.92;100.00
9764;BME280;4921;43.214;27.936;2022-07-29T07:33:29;101084.47;;;28.04;100.00
9764;BME280;4921;43.214;27.936;2022-07-29T07:35:56;101083.22;;;28.06;100.00
9764;BME280;4921;43.214;27.936;2022-07-29T07:38:23;101084.34;;;28.17;100.00
9764;BME280;4921;43.214;27.936;2022-07-29T07:40:50;101078.03;;;28.23;100.00
9764;BME280;4921;43.214;27.936;2022-07-29T07:43:17;101084.19;;;28.30;100.00
9764;BME280;4921;43.214;27.936;2022-07-29T07:45:44;101088.63;;;28.24;100.00
9764;BME280;4921;43.214;27.936;2022-07-29T07:48:12;101090.66;;;28.11;100.00
9764;BME280;4921;43.214;27.936;2022-07-29T07:50:39;101088.19;;;28.09;100.00
9764;BME280;4921;43.214;27.936;2022-07-29T07:53:06;101097.34;;;28.08;100.00
9764;BME280;4921;43.214;27.936;2022-07-29T07:55:33;101082.53;;;28.11;100.00
9764;BME280;4921;43.214;27.936;2022-07-29T07:58:05;101086.59;;;28.20;100.00
9764;BME280;4921;43.214;27.936;2022-07-29T08:00:32;101093.81;;;28.26;100.00
9764;BME280;4921;43.214;27.936;2022-07-29T08:02:59;101085.84;;;28.31;100.00
9764;BME280;4921;43.214;27.936;2022-07-29T08:05:28;101087.88;;;28.35;100.00
9764;BME280;4921;43.214;27.936;2022-07-29T08:07:55;101094.63;;;28.08;100.00
9764;BME280;4921;43.214;27.936;2022-07-29T08:10:22;101088.97;;;27.91;100.00
9764;BME280;4921;43.214;27.936;2022-07-29T08:13:03;101083.63;;;27.85;100.00
9764;BME280;4921;43.214;27.936;2022-07-29T08:15:30;101078.75;;;27.75;100.00
9764;BME280;4921;43.214;27.936;2022-07-29T08:17:56;101082.09;;;27.71;100.00
9764;BME280;4921;43.214;27.936;2022-07-29T08:20:24;101080.97;;;27.78;100.00
9764;BME280;4921;43.214;27.936;2022-07-29T08:22:52;101092.56;;;27.85;100.00
9764;BME280;4921;43.214;27.936;2022-07-29T08:25:19;101085.56;;;27.78;100.00
9764;BME280;4921;43.214;27.936;2022-07-29T08:27:46;101091.78;;;27.78;100.00
9764;BME280;4921;43.214;27.936;2022-07-29T08:30:14;101090.34;;;28.01;100.00
9764;BME280;4921;43.214;27.936;2022-07-29T08:32:41;101080.31;;;28.08;100.00
9764;BME280;4921;43.214;27.936;2022-07-29T08:35:08;101091.13;;;27.83;100.00
9764;BME280;4921;43.214;27.936;2022-07-29T08:37:35;101093.16;;;27.87;100.00
9764;BME280;4921;43.214;27.936;2022-07-29T08:40:04;101094.13;;;27.75;100.00
9764;BME280;4921;43.214;27.936;2022-07-29T08:42:32;101087.41;;;27.59;100.00
9764;BME280;4921;43.214;27.936;2022-07-29T08:44:59;101090.41;;;27.69;100.00
9764;BME280;4921;43.214;27.936;2022-07-29T08:47:27;101092.50;;;27.67;100.00
9764;BME280;4921;43.214;27.936;2022-07-29T08:49:54;101091.34;;;27.81;100.00
9764;BME280;4921;43.214;27.936;2022-07-29T08:52:25;101078.88;;;27.80;100.00
9764;BME280;4921;43.214;27.936;2022-07-29T08:54:52;101076.41;;;27.79;100.00
9764;BME280;4921;43.214;27.936;2022-07-29T08:57:21;101078.66;;;27.82;100.00
9764;BME280;4921;43.214;27.936;2022-07-29T08:59:50;101082.78;;;27.84;100.00
9764;BME280;4921;43.214;27.936;2022-07-29T09:02:20;101073.34;;;27.93;100.00
9764;BME280;4921;43.214;27.936;2022-07-29T09:04:47;101070.59;;;28.00;100.00
9764;BME280;4921;43.214;27.936;2022-07-29T09:07:15;101067.13;;;28.11;100.00
9764;BME280;4921;43.214;27.936;2022-07-29T09:09:43;101068.03;;;28.23;98.53
9764;BME280;4921;43.214;27.936;2022-07-29T09:12:11;101072.84;;;28.21;100.00
9764;BME280;4921;43.214;27.936;2022-07-29T09:14:41;101064.97;;;28.20;100.00
9764;BME280;4921;43.214;27.936;2022-07-29T09:17:08;101066.91;;;28.13;100.00
9764;BME280;4921;43.214;27.936;2022-07-29T09:19:37;101073.53;;;27.99;100.00
9764;BME280;4921;43.214;27.936;2022-07-29T09:22:05;101076.50;;;27.90;100.00
9764;BME280;4921;43.214;27.936;2022-07-29T09:24:43;101072.19;;;28.08;100.00
9764;BME280;4921;43.214;27.936;2022-07-29T09:27:21;101056.31;;;28.11;100.00
9764;BME280;4921;43.214;27.936;2022-07-29T09:29:58;101067.66;;;28.38;100.00
9764;BME280;4921;43.214;27.936;2022-07-29T09:32:25;101056.84;;;28.38;100.00
9764;BME280;4921;43.214;27.936;2022-07-29T09:35:14;101063.13;;;28.50;100.00
9764;BME280;4921;43.214;27.936;2022-07-29T09:37:42;101066.50;;;28.63;100.00
9764;BME280;4921;43.214;27.936;2022-07-29T09:40:12;101060.88;;;28.65;100.00
9764;BME280;4921;43.214;27.936;2022-07-29T09:42:39;101065.00;;;28.67;100.00
9764;BME280;4921;43.214;27.936;2022-07-29T09:45:08;101059.00;;;28.65;100.00
9764;BME280;4921;43.214;27.936;2022-07-29T09:47:43;101065.41;;;28.83;100.00
9764;BME280;4921;43.214;27.936;2022-07-29T09:50:12;101064.16;;;28.67;100.00
9764;BME280;4921;43.214;27.936;2022-07-29T09:52:47;101051.38;;;28.74;100.00
9764;BME280;4921;43.214;27.936;2022-07-29T09:55:14;101059.47;;;29.04;100.00
9764;BME280;4921;43.214;27.936;2022-07-29T09:57:41;101062.13;;;28.92;100.00
9764;BME280;4921;43.214;27.936;2022-07-29T10:00:12;101056.06;;;29.08;100.00
9764;BME280;4921;43.214;27.936;2022-07-29T10:02:41;101055.03;;;29.21;100.00
9764;BME280;4921;43.214;27.936;2022-07-29T10:05:21;101059.44;;;29.45;100.00
9764;BME280;4921;43.214;27.936;2022-07-29T10:07:50;101061.81;;;29.42;100.00
9764;BME280;4921;43.214;27.936;2022-07-29T10:10:21;101059.53;;;29.27;100.00
9764;BME280;4921;43.214;27.936;2022-07-29T10:12:54;101059.19;;;29.35;100.00
9764;BME280;4921;43.214;27.936;2022-07-29T10:15:23;101060.00;;;29.24;100.00
9764;BME280;4921;43.214;27.936;2022-07-29T10:17:51;101058.22;;;29.18;100.00
9764;BME280;4921;43.214;27.936;2022-07-29T10:20:18;101064.13;;;29.38;100.00
9764;BME280;4921;43.214;27.936;2022-07-29T10:22:46;101066.59;;;29.39;100.00
9764;BME280;4921;43.214;27.936;2022-07-29T10:25:14;101071.69;;;29.36;100.00
9764;BME280;4921;43.214;27.936;2022-07-29T10:27:41;101063.91;;;29.39;100.00
9764;BME280;4921;43.214;27.936;2022-07-29T10:30:10;101063.94;;;29.10;100.00
9764;BME280;4921;43.214;27.936;2022-07-29T10:33:00;101064.50;;;29.30;100.00
9764;BME280;4921;43.214;27.936;2022-07-29T10:35:43;101058.63;;;29.03;100.00
9764;BME280;4921;43.214;27.936;2022-07-29T10:38:30;101058.53;;;29.10;100.00
9764;BME280;4921;43.214;27.936;2022-07-29T10:41:10;101053.66;;;29.30;100.00
9764;BME280;4921;43.214;27.936;2022-07-29T10:43:56;101052.25;;;29.39;100.00
9764;BME280;4921;43.214;27.936;2022-07-29T10:46:25;101059.31;;;29.40;100.00
9764;BME280;4921;43.214;27.936;2022-07-29T10:49:08;101055.75;;;29.39;100.00
9764;BME280;4921;43.214;27.936;2022-07-29T10:52:02;101058.63;;;29.56;98.99
9764;BME280;4921;43.214;27.936;2022-07-29T10:54:47;101056.94;;;29.32;100.00
9764;BME280;4921;43.214;27.936;2022-07-29T10:57:24;101056.03;;;29.50;100.00
9764;BME280;4921;43.214;27.936;2022-07-29T11:00:30;101065.81;;;29.39;100.00
9764;BME280;4921;43.214;27.936;2022-07-29T11:02:59;101059.19;;;29.23;100.00
9764;BME280;4921;43.214;27.936;2022-07-29T11:05:28;101053.25;;;29.15;100.00
9764;BME280;4921;43.214;27.936;2022-07-29T11:08:21;101055.63;;;29.23;100.00
9764;BME280;4921;43.214;27.936;2022-07-29T11:10:52;101051.88;;;29.35;100.00
9764;BME280;4921;43.214;27.936;2022-07-29T11:13:50;101059.06;;;29.30;100.00
9764;BME280;4921;43.214;27.936;2022-07-29T11:16:21;101050.63;;;29.08;100.00
9764;BME280;4921;43.214;27.936;2022-07-29T11:19:19;101053.78;;;29.35;100.00
9764;BME280;4921;43.214;27.936;2022-07-29T11:21:48;101057.19;;;29.30;100.00
9764;BME280;4921;43.214;27.936;2022-07-29T11:24:19;101045.75;;;29.28;100.00
9764;BME280;4921;43.214;27.936;2022-07-29T11:27:07;101049.03;;;29.19;100.00
9764;BME280;4921;43.214;27.936;2022-07-29T11:29:35;101037.97;;;29.32;100.00
9764;BME280;4921;43.214;27.936;2022-07-29T11:32:09;101027.59;;;29.29;100.00
9764;BME280;4921;43.214;27.936;2022-07-29T11:34:36;101026.31;;;29.31;100.00
9764;BME280;4921;43.214;27.936;2022-07-29T11:37:21;101044.34;;;29.37;100.00
9764;BME280;4921;43.214;27.936;2022-07-29T11:40:09;101034.91;;;29.40;100.00
9764;BME280;4921;43.214;27.936;2022-07-29T11:42:47;101035.63;;;29.70;100.00
9764;BME280;4921;43.214;27.936;2022-07-29T11:45:17;101038.22;;;29.77;100.00
9764;BME280;4921;43.214;27.936;2022-07-29T11:47:50;101038.56;;;29.69;100.00
9764;BME280;4921;43.214;27.936;2022-07-29T11:50:27;101032.81;;;29.65;100.00
9764;BME280;4921;43.214;27.936;2022-07-29T11:52:56;101029.75;;;28.97;100.00
9764;BME280;4921;43.214;27.936;2022-07-29T11:55:23;101022.88;;;28.72;100.00
9764;BME280;4921;43.214;27.936;2022-07-29T11:57:52;101024.00;;;28.94;100.00
9764;BME280;4921;43.214;27.936;2022-07-29T12:00:28;101022.56;;;28.91;100.00
9764;BME280;4921;43.214;27.936;2022-07-29T12:02:57;101021.34;;;28.76;100.00
9764;BME280;4921;43.214;27.936;2022-07-29T12:05:34;101024.00;;;28.64;100.00
9764;BME280;4921;43.214;27.936;2022-07-29T12:08:07;101020.94;;;28.60;100.00
9764;BME280;4921;43.214;27.936;2022-07-29T12:10:35;101011.38;;;28.58;100.00
9764;BME280;4921;43.214;27.936;2022-07-29T12:13:02;101014.16;;;28.51;100.00
9764;BME280;4921;43.214;27.936;2022-07-29T12:15:29;101010.03;;;28.49;100.00
9764;BME280;4921;43.214;27.936;2022-07-29T12:17:56;101000.50;;;28.46;100.00
9764;BME280;4921;43.214;27.936;2022-07-29T12:20:24;101000.97;;;28.43;100.00
9764;BME280;4921;43.214;27.936;2022-07-29T12:22:52;100995.69;;;28.48;100.00
9764;BME280;4921;43.214;27.936;2022-07-29T12:25:22;100992.66;;;28.56;100.00
9764;BME280;4921;43.214;27.936;2022-07-29T12:28:00;100995.00;;;28.53;100.00
9764;BME280;4921;43.214;27.936;2022-07-29T12:30:35;100985.50;;;28.62;100.00
9764;BME280;4921;43.214;27.936;2022-07-29T12:33:14;100990.72;;;28.75;100.00
9764;BME280;4921;43.214;27.936;2022-07-29T12:35:42;100987.13;;;28.81;100.00
9764;BME280;4921;43.214;27.936;2022-07-29T12:38:11;100993.53;;;28.68;100.00
9764;BME280;4921;43.214;27.936;2022-07-29T12:40:40;100986.59;;;28.73;100.00
9764;BME280;4921;43.214;27.936;2022-07-29T12:43:09;100977.44;;;28.74;100.00
9764;BME280;4921;43.214;27.936;2022-07-29T12:45:36;100986.16;;;28.76;100.00
9764;BME280;4921;43.214;27.936;2022-07-29T12:48:04;100979.69;;;28.77;100.00
9764;BME280;4921;43.214;27.936;2022-07-29T12:50:34;100982.50;;;28.82;100.00
9764;BME280;4921;43.214;27.936;2022-07-29T12:53:11;100973.56;;;28.51;100.00
9764;BME280;4921;43.214;27.936;2022-07-29T12:55:44;100965.97;;;28.60;100.00
9764;BME280;4921;43.214;27.936;2022-07-29T12:58:25;100971.09;;;28.50;100.00
9764;BME280;4921;43.214;27.936;2022-07-29T13:01:09;100971.28;;;28.66;100.00
9764;BME280;4921;43.214;27.936;2022-07-29T13:03:47;100972.50;;;28.52;100.00
9764;BME280;4921;43.214;27.936;2022-07-29T13:06:31;100968.56;;;28.37;100.00